createdAt,value
2018-04-08T00:00:36.666Z,14.00
2018-04-08T00:03:04.344Z,13.80
2018-04-08T00:05:31.865Z,13.90
2018-04-08T00:08:00.144Z,13.70
2018-04-08T00:10:27.742Z,13.70
2018-04-08T00:12:55.280Z,13.90
2018-04-08T00:15:22.774Z,13.90
2018-04-08T00:17:50.280Z,13.70
2018-04-08T00:20:17.872Z,13.70
2018-04-08T00:22:45.423Z,13.70
2018-04-08T00:25:13.072Z,13.80
2018-04-08T00:27:40.608Z,13.90
2018-04-08T00:30:08.226Z,13.90
2018-04-08T00:32:35.754Z,13.90
2018-04-08T00:35:03.225Z,13.90
2018-04-08T00:37:30.763Z,13.80
2018-04-08T00:39:58.273Z,13.70
2018-04-08T00:42:26.185Z,13.70
2018-04-08T00:44:53.829Z,13.70
2018-04-08T00:47:21.299Z,13.60
2018-04-08T00:49:48.827Z,13.70
2018-04-08T00:52:16.293Z,13.70
2018-04-08T00:54:44.541Z,13.70
2018-04-08T00:57:12.001Z,13.70
2018-04-08T00:59:39.470Z,13.80
2018-04-08T01:02:06.919Z,13.60
2018-04-08T01:04:34.373Z,13.60
2018-04-08T01:07:01.855Z,13.50
2018-04-08T01:09:29.344Z,13.50
2018-04-08T01:11:56.899Z,13.50
2018-04-08T01:14:24.415Z,13.40
2018-04-08T01:16:51.957Z,13.30
2018-04-08T01:19:19.422Z,13.30
2018-04-08T01:21:46.877Z,13.10
2018-04-08T01:24:14.451Z,13.00
2018-04-08T01:26:42.024Z,13.00
2018-04-08T01:29:09.513Z,12.90
2018-04-08T01:31:37.047Z,12.90
2018-04-08T01:34:04.577Z,13.20
2018-04-08T01:36:32.304Z,13.30
2018-04-08T01:38:59.815Z,13.20
2018-04-08T01:41:27.431Z,13.20
2018-04-08T01:43:54.959Z,13.30
2018-04-08T01:46:23.394Z,13.20
2018-04-08T01:48:50.892Z,13.20
2018-04-08T01:51:18.341Z,13.20
2018-04-08T01:53:45.921Z,13.10
2018-04-08T01:56:13.369Z,13.20
2018-04-08T01:58:40.900Z,13.30
2018-04-08T02:01:14.096Z,13.20
2018-04-08T02:03:41.549Z,13.20
2018-04-08T02:06:09.029Z,13.20
2018-04-08T02:08:36.570Z,13.30
2018-04-08T02:11:04.057Z,13.30
2018-04-08T02:13:31.586Z,13.20
2018-04-08T02:15:59.042Z,13.20
2018-04-08T02:18:26.530Z,13.10
2018-04-08T02:20:54.028Z,13.10
2018-04-08T02:23:21.513Z,13.00
2018-04-08T02:25:49.010Z,13.00
2018-04-08T02:28:16.569Z,13.00
2018-04-08T02:30:44.894Z,12.80
2018-04-08T02:33:13.238Z,12.50
2018-04-08T02:35:41.609Z,12.30
2018-04-08T02:38:09.155Z,12.30
2018-04-08T02:40:36.702Z,12.40
2018-04-08T02:43:04.244Z,12.50
2018-04-08T02:45:31.727Z,12.60
2018-04-08T02:47:59.369Z,12.60
2018-04-08T02:50:26.924Z,12.50
2018-04-08T02:52:54.414Z,12.50
2018-04-08T02:55:21.916Z,12.40
2018-04-08T02:57:49.428Z,12.40
2018-04-08T03:00:17.694Z,12.40
2018-04-08T03:02:45.192Z,12.40
2018-04-08T03:05:13.511Z,12.40
2018-04-08T03:07:41.103Z,12.40
2018-04-08T03:10:08.679Z,12.40
2018-04-08T03:12:37.005Z,12.30
2018-04-08T03:15:04.685Z,12.20
2018-04-08T03:17:32.173Z,12.20
2018-04-08T03:20:00.525Z,12.20
2018-04-08T03:22:28.842Z,12.30
2018-04-08T03:24:56.402Z,12.20
2018-04-08T03:27:23.994Z,12.20
2018-04-08T03:29:51.523Z,12.20
2018-04-08T03:32:19.065Z,12.30
2018-04-08T03:34:46.637Z,12.30
2018-04-08T03:37:14.207Z,12.20
2018-04-08T03:39:41.803Z,11.90
2018-04-08T03:42:09.314Z,11.90
2018-04-08T03:44:36.848Z,11.80
2018-04-08T03:47:04.504Z,11.90
2018-04-08T03:49:32.168Z,11.80
2018-04-08T03:51:59.758Z,11.90
2018-04-08T03:54:27.368Z,11.90
2018-04-08T03:56:54.873Z,12.00
2018-04-08T03:59:22.445Z,11.90
2018-04-08T04:01:49.972Z,11.90
2018-04-08T04:04:18.234Z,11.80
2018-04-08T04:06:45.752Z,11.80
2018-04-08T04:09:13.286Z,11.80
2018-04-08T04:11:40.860Z,11.80
2018-04-08T04:14:08.481Z,11.60
2018-04-08T04:16:35.959Z,11.60
2018-04-08T04:19:15.103Z,11.50
2018-04-08T04:21:54.258Z,11.40
2018-04-08T04:24:33.588Z,11.50
2018-04-08T04:27:01.041Z,11.40
2018-04-08T04:29:28.502Z,11.40
2018-04-08T04:31:55.979Z,11.30
2018-04-08T04:34:23.512Z,11.30
2018-04-08T04:36:50.998Z,11.20
2018-04-08T04:39:18.461Z,11.10
2018-04-08T04:41:45.952Z,11.00
2018-04-08T04:44:13.524Z,11.00
2018-04-08T04:46:40.993Z,11.00
2018-04-08T04:49:12.471Z,11.00
2018-04-08T04:51:39.961Z,11.00
2018-04-08T04:54:07.436Z,10.90
2018-04-08T04:56:35.194Z,10.80
2018-04-08T04:59:02.675Z,10.80
2018-04-08T05:01:30.327Z,10.90
2018-04-08T05:03:57.857Z,10.80
2018-04-08T05:06:26.097Z,10.80
2018-04-08T05:08:53.628Z,10.80
2018-04-08T05:11:21.129Z,10.90
2018-04-08T05:13:48.792Z,10.90
2018-04-08T05:16:17.070Z,11.00
2018-04-08T05:18:45.314Z,11.00
2018-04-08T05:21:12.778Z,11.00
2018-04-08T05:23:40.424Z,11.00
2018-04-08T05:26:08.023Z,11.10
2018-04-08T05:28:35.529Z,11.20
2018-04-08T05:31:03.055Z,11.30
2018-04-08T05:33:30.579Z,11.50
2018-04-08T05:35:58.132Z,11.70
2018-04-08T05:38:25.696Z,11.90
2018-04-08T05:40:53.223Z,12.20
2018-04-08T05:43:20.694Z,12.90
2018-04-08T05:45:48.174Z,13.40
2018-04-08T05:48:15.637Z,14.00
2018-04-08T05:50:43.125Z,14.40
2018-04-08T05:53:11.110Z,14.70
2018-04-08T05:55:38.713Z,15.10
2018-04-08T05:58:06.469Z,15.60
2018-04-08T06:00:33.943Z,16.20
2018-04-08T06:03:01.442Z,16.80
2018-04-08T06:05:29.022Z,17.30
2018-04-08T06:07:56.633Z,17.40
2018-04-08T06:10:24.129Z,17.80
2018-04-08T06:12:55.533Z,17.80
2018-04-08T06:15:23.177Z,17.90
2018-04-08T06:17:50.737Z,18.50
2018-04-08T06:20:18.268Z,18.90
2018-04-08T06:22:45.773Z,18.70
2018-04-08T06:25:13.262Z,18.10
2018-04-08T06:27:40.981Z,18.20
2018-04-08T06:30:09.264Z,18.10
2018-04-08T06:32:37.485Z,18.30
2018-04-08T06:35:04.977Z,18.20
2018-04-08T06:37:32.452Z,18.30
2018-04-08T06:39:59.896Z,18.50
2018-04-08T06:42:28.393Z,18.90
2018-04-08T06:44:55.971Z,18.90
2018-04-08T06:47:23.433Z,19.70
2018-04-08T06:49:50.920Z,20.20
2018-04-08T06:52:18.430Z,20.10
2018-04-08T06:54:45.974Z,20.50
2018-04-08T06:57:13.469Z,20.80
2018-04-08T06:59:40.963Z,20.40
2018-04-08T07:02:08.476Z,20.10
2018-04-08T07:04:36.015Z,19.70
2018-04-08T07:07:03.578Z,20.10
2018-04-08T07:09:31.036Z,20.00
2018-04-08T07:11:58.577Z,19.90
2018-04-08T07:14:26.057Z,19.40
2018-04-08T07:16:53.606Z,19.20
2018-04-08T07:19:21.155Z,19.00
2018-04-08T07:21:49.497Z,18.10
2018-04-08T07:24:16.992Z,18.10
2018-04-08T07:26:44.515Z,17.90
2018-04-08T07:29:12.035Z,17.50
2018-04-08T07:31:39.543Z,17.20
2018-04-08T07:34:07.030Z,17.30
2018-04-08T07:36:34.496Z,17.40
2018-04-08T07:39:02.109Z,17.60
2018-04-08T07:41:29.709Z,18.00
2018-04-08T07:43:57.225Z,18.60
2018-04-08T07:46:24.922Z,18.60
2018-04-08T07:48:52.380Z,18.70
2018-04-08T07:51:20.238Z,19.10
2018-04-08T07:53:47.908Z,18.70
2018-04-08T07:56:15.532Z,18.60
2018-04-08T07:58:43.029Z,18.50
2018-04-08T08:01:10.784Z,18.70
2018-04-08T08:03:38.313Z,18.80
2018-04-08T08:06:05.824Z,18.90
2018-04-08T08:08:33.317Z,18.70
2018-04-08T08:11:00.817Z,19.20
2018-04-08T08:13:28.356Z,19.50
2018-04-08T08:15:55.964Z,19.50
2018-04-08T08:18:23.568Z,19.50
2018-04-08T08:20:51.851Z,19.70
2018-04-08T08:23:26.399Z,19.70
2018-04-08T08:25:55.542Z,21.10
2018-04-08T08:28:23.022Z,22.40
2018-04-08T08:30:50.830Z,23.10
2018-04-08T08:33:19.410Z,23.00
2018-04-08T08:35:47.030Z,23.40
2018-04-08T08:38:15.317Z,25.60
2018-04-08T08:40:42.769Z,25.50
2018-04-08T08:43:10.987Z,26.30
2018-04-08T08:45:38.487Z,26.40
2018-04-08T08:48:05.966Z,25.00
2018-04-08T08:50:33.497Z,25.70
2018-04-08T08:53:01.056Z,26.30
2018-04-08T08:55:29.290Z,26.10
2018-04-08T08:57:56.828Z,26.10
2018-04-08T09:00:24.322Z,26.60
2018-04-08T09:02:51.764Z,27.40
2018-04-08T09:05:19.255Z,27.10
2018-04-08T09:07:46.792Z,26.20
2018-04-08T09:10:14.538Z,27.30
2018-04-08T09:12:41.983Z,27.60
2018-04-08T09:15:09.510Z,27.30
2018-04-08T09:17:37.067Z,27.50
2018-04-08T09:20:11.893Z,26.90
2018-04-08T09:25:44.328Z,25.30
2018-04-08T09:28:11.822Z,25.40
2018-04-08T09:30:39.278Z,26.10
2018-04-08T09:33:06.777Z,26.80
2018-04-08T09:35:34.264Z,25.70
2018-04-08T09:38:02.484Z,26.80
2018-04-08T09:40:29.937Z,26.70
2018-04-08T09:42:57.415Z,27.20
2018-04-08T09:45:24.918Z,26.90
2018-04-08T09:47:52.375Z,27.40
2018-04-08T09:50:19.826Z,26.90
2018-04-08T09:52:48.065Z,28.20
2018-04-08T09:55:15.516Z,28.20
2018-04-08T09:57:58.776Z,28.20
2018-04-08T10:00:32.165Z,26.50
2018-04-08T10:03:15.401Z,27.10
2018-04-08T10:05:42.928Z,27.50
2018-04-08T10:08:10.320Z,27.40
2018-04-08T10:10:38.622Z,27.60
2018-04-08T10:13:06.848Z,26.60
2018-04-08T10:15:34.308Z,26.50
2018-04-08T10:18:01.780Z,26.90
2018-04-08T10:20:29.986Z,27.70
2018-04-08T10:22:57.450Z,27.60
2018-04-08T10:25:25.655Z,27.50
2018-04-08T10:27:53.152Z,27.50
2018-04-08T10:30:20.609Z,27.20
2018-04-08T10:32:48.050Z,27.10
2018-04-08T10:35:16.293Z,26.80
2018-04-08T10:37:43.782Z,26.80
2018-04-08T10:40:11.216Z,27.00
2018-04-08T10:42:38.762Z,26.80
2018-04-08T10:45:07.009Z,26.30
2018-04-08T10:47:34.486Z,26.30
2018-04-08T10:50:01.949Z,26.80
2018-04-08T10:52:29.859Z,26.80
2018-04-08T10:54:57.388Z,27.50
2018-04-08T10:57:25.592Z,27.20
2018-04-08T10:59:53.076Z,27.20
2018-04-08T11:02:20.555Z,27.60
2018-04-08T11:04:48.080Z,28.10
2018-04-08T11:07:15.452Z,27.90
2018-04-08T11:09:42.926Z,27.60
2018-04-08T11:12:10.381Z,28.10
2018-04-08T11:14:38.657Z,27.50
2018-04-08T11:17:06.140Z,26.60
2018-04-08T11:19:33.581Z,26.60
2018-04-08T11:22:01.053Z,26.60
2018-04-08T11:24:28.489Z,26.70
2018-04-08T11:26:55.976Z,27.20
2018-04-08T11:29:24.180Z,26.70
2018-04-08T11:31:52.439Z,26.40
2018-04-08T11:34:19.892Z,26.40
2018-04-08T11:36:47.363Z,26.00
2018-04-08T11:39:14.840Z,26.70
2018-04-08T11:41:42.288Z,26.80
2018-04-08T11:44:09.763Z,26.50
2018-04-08T11:46:38.003Z,26.40
2018-04-08T11:49:05.476Z,26.40
2018-04-08T11:51:32.900Z,26.90
2018-04-08T11:54:00.363Z,27.30
2018-04-08T11:56:28.572Z,27.80
2018-04-08T11:58:56.796Z,27.40
2018-04-08T12:01:24.315Z,27.30
2018-04-08T12:03:51.757Z,26.80
2018-04-08T12:06:19.229Z,26.80
2018-04-08T12:08:46.692Z,27.10
2018-04-08T12:11:14.188Z,27.30
2018-04-08T12:13:41.629Z,27.60
2018-04-08T12:16:09.091Z,27.80
2018-04-08T12:18:36.543Z,27.80
2018-04-08T12:21:04.755Z,28.00
2018-04-08T12:23:32.205Z,28.00
2018-04-08T12:26:00.154Z,27.60
2018-04-08T12:28:27.601Z,28.00
2018-04-08T12:30:55.084Z,27.90
2018-04-08T12:33:22.536Z,27.40
2018-04-08T12:35:50.769Z,27.50
2018-04-08T12:38:18.308Z,27.50
2018-04-08T12:40:46.541Z,28.00
2018-04-08T12:43:14.011Z,28.00
2018-04-08T12:45:41.498Z,28.00
2018-04-08T12:48:08.955Z,28.30
2018-04-08T12:50:36.408Z,28.60
2018-04-08T12:53:03.853Z,28.70
2018-04-08T12:55:32.212Z,28.50
2018-04-08T12:57:59.692Z,28.50
2018-04-08T13:00:27.128Z,28.10
2018-04-08T13:02:54.578Z,28.00
2018-04-08T13:05:22.012Z,28.30
2018-04-08T13:07:49.501Z,28.20
2018-04-08T13:12:52.417Z,28.50
2018-04-08T13:15:19.860Z,28.50
2018-04-08T13:17:47.330Z,28.00
2018-04-08T13:20:14.780Z,27.50
2018-04-08T13:22:42.255Z,27.70
2018-04-08T13:25:10.475Z,27.50
2018-04-08T13:27:38.464Z,27.50
2018-04-08T13:30:05.937Z,27.90
2018-04-08T13:32:34.176Z,28.00
2018-04-08T13:35:01.625Z,28.00
2018-04-08T13:37:29.082Z,28.20
2018-04-08T13:39:56.546Z,28.00
2018-04-08T13:42:24.011Z,27.70
2018-04-08T13:44:52.279Z,27.60
2018-04-08T13:47:19.733Z,27.60
2018-04-08T13:49:47.189Z,27.50
2018-04-08T13:52:14.649Z,27.80
2018-04-08T13:54:42.860Z,28.20
2018-04-08T13:57:10.326Z,28.20
2018-04-08T13:59:37.807Z,27.90
2018-04-08T14:02:05.285Z,28.20
2018-04-08T14:04:32.760Z,28.30
2018-04-08T14:07:00.213Z,28.20
2018-04-08T14:09:27.758Z,27.80
2018-04-08T14:11:55.248Z,27.90
2018-04-08T14:14:22.800Z,27.70
2018-04-08T14:16:50.218Z,27.50
2018-04-08T14:19:17.667Z,27.60
2018-04-08T14:21:45.893Z,27.60
2018-04-08T14:24:13.429Z,27.60
2018-04-08T14:26:40.897Z,27.70
2018-04-08T14:29:08.343Z,27.50
2018-04-08T14:31:35.800Z,27.30
2018-04-08T14:34:03.256Z,27.60
2018-04-08T14:36:30.732Z,27.90
2018-04-08T14:38:58.240Z,27.40
2018-04-08T14:41:25.693Z,27.00
2018-04-08T14:43:53.134Z,26.60
2018-04-08T14:46:21.383Z,26.90
2018-04-08T14:48:48.933Z,26.90
2018-04-08T14:51:17.198Z,27.00
2018-04-08T14:53:45.414Z,26.70
2018-04-08T14:56:13.635Z,26.90
2018-04-08T14:58:41.064Z,26.90
2018-04-08T15:01:09.307Z,26.80
2018-04-08T15:03:36.773Z,26.80
2018-04-08T15:06:04.218Z,26.60
2018-04-08T15:08:32.441Z,26.50
2018-04-08T15:10:59.889Z,26.40
2018-04-08T15:13:27.480Z,26.20
2018-04-08T15:15:54.905Z,25.90
2018-04-08T15:18:22.406Z,25.90
2018-04-08T15:20:49.903Z,26.20
2018-04-08T15:23:18.109Z,25.90
2018-04-08T15:25:45.559Z,25.90
2018-04-08T15:28:13.702Z,25.70
2018-04-08T15:30:41.151Z,25.90
2018-04-08T15:33:08.858Z,25.60
2018-04-08T15:35:36.289Z,25.50
2018-04-08T15:38:03.758Z,25.70
2018-04-08T15:40:31.220Z,25.80
2018-04-08T15:42:59.451Z,25.70
2018-04-08T15:45:26.906Z,25.70
2018-04-08T15:47:54.390Z,25.90
2018-04-08T15:50:21.848Z,25.80
2018-04-08T15:52:50.068Z,25.80
2018-04-08T15:55:17.558Z,25.80
2018-04-08T15:57:45.022Z,25.80
2018-04-08T16:00:12.528Z,25.50
2018-04-08T16:02:39.963Z,25.50
2018-04-08T16:05:07.435Z,25.40
2018-04-08T16:07:35.718Z,25.30
2018-04-08T16:10:03.164Z,25.30
2018-04-08T16:12:30.601Z,25.40
2018-04-08T16:14:58.276Z,25.10
2018-04-08T16:17:25.710Z,24.90
2018-04-08T16:19:53.191Z,24.90
2018-04-08T16:22:20.666Z,25.00
2018-04-08T16:24:48.905Z,24.90
2018-04-08T16:27:16.349Z,24.90
2018-04-08T16:29:43.823Z,24.80
2018-04-08T16:32:12.047Z,24.90
2018-04-08T16:34:39.569Z,24.90
2018-04-08T16:37:07.794Z,24.60
2018-04-08T16:39:35.237Z,24.60
2018-04-08T16:42:03.473Z,24.50
2018-04-08T16:44:30.931Z,24.50
2018-04-08T16:46:58.391Z,24.40
2018-04-08T16:49:25.865Z,24.40
2018-04-08T16:51:53.318Z,24.40
2018-04-08T16:54:22.475Z,24.30
2018-04-08T16:56:50.123Z,24.30
2018-04-08T16:59:18.355Z,24.20
2018-04-08T17:01:45.808Z,24.20
2018-04-08T17:04:13.259Z,24.10
2018-04-08T17:06:41.479Z,23.90
2018-04-08T17:09:08.940Z,23.90
2018-04-08T17:11:37.137Z,23.70
2018-04-08T17:14:04.602Z,23.70
2018-04-08T17:16:32.842Z,23.50
2018-04-08T17:19:00.285Z,23.50
2018-04-08T17:21:27.729Z,23.60
2018-04-08T17:23:55.956Z,23.30
2018-04-08T17:26:23.408Z,23.20
2018-04-08T17:28:51.541Z,23.10
2018-04-08T17:31:22.985Z,23.20
2018-04-08T17:33:50.464Z,23.00
2018-04-08T17:36:17.926Z,22.90
2018-04-08T17:38:45.396Z,22.90
2018-04-08T17:41:12.833Z,22.80
2018-04-08T17:43:40.352Z,22.70
2018-04-08T17:46:07.851Z,22.40
2018-04-08T17:48:35.332Z,22.30
2018-04-08T17:51:02.822Z,22.20
2018-04-08T17:53:30.257Z,22.10
2018-04-08T17:55:57.730Z,22.00
2018-04-08T17:58:25.173Z,21.90
2018-04-08T18:00:53.425Z,21.90
2018-04-08T18:03:20.884Z,21.80
2018-04-08T18:05:48.368Z,21.80
2018-04-08T18:08:15.828Z,21.70
2018-04-08T18:10:43.312Z,21.60
2018-04-08T18:13:10.758Z,21.60
2018-04-08T18:15:39.000Z,21.60
2018-04-08T18:18:06.450Z,21.50
2018-04-08T18:20:33.930Z,21.50
2018-04-08T18:23:01.385Z,21.40
2018-04-08T18:25:28.833Z,21.30
2018-04-08T18:27:56.296Z,21.10
2018-04-08T18:30:23.891Z,21.10
2018-04-08T18:32:51.490Z,21.00
2018-04-08T18:35:19.715Z,21.00
2018-04-08T18:37:47.212Z,20.90
2018-04-08T18:40:14.672Z,21.10
2018-04-08T18:42:42.140Z,21.20
2018-04-08T18:45:09.579Z,21.10
2018-04-08T18:47:37.042Z,21.00
2018-04-08T18:50:05.279Z,21.10
2018-04-08T18:52:32.745Z,21.10
2018-04-08T18:55:00.247Z,21.00
2018-04-08T18:57:27.721Z,21.00
2018-04-08T18:59:55.201Z,20.90
2018-04-08T19:02:22.700Z,20.90
2018-04-08T19:04:50.175Z,20.90
2018-04-08T19:07:17.653Z,20.70
2018-04-08T19:09:45.895Z,20.70
2018-04-08T19:12:13.352Z,20.60
2018-04-08T19:14:46.410Z,20.70
2018-04-08T19:17:19.623Z,20.60
2018-04-08T19:19:47.130Z,20.60
2018-04-08T19:22:15.337Z,20.50
2018-04-08T19:24:42.955Z,20.50
2018-04-08T19:27:10.467Z,20.40
2018-04-08T19:29:38.729Z,20.20
2018-04-08T19:32:06.173Z,20.20
2018-04-08T19:34:33.672Z,20.30
2018-04-08T19:37:01.194Z,20.10
2018-04-08T19:39:28.773Z,20.10
2018-04-08T19:41:57.016Z,20.00
2018-04-08T19:44:24.498Z,20.00
2018-04-08T19:46:52.011Z,19.90
2018-04-08T19:49:20.310Z,19.80
2018-04-08T19:51:48.566Z,19.90
2018-04-08T19:54:16.052Z,19.80
2018-04-08T19:56:43.514Z,19.80
2018-04-08T19:59:10.945Z,19.70
2018-04-08T20:01:38.451Z,19.70
2018-04-08T20:04:05.922Z,19.50
2018-04-08T20:06:33.457Z,19.40
2018-04-08T20:09:01.711Z,19.20
2018-04-08T20:11:29.156Z,19.20
2018-04-08T20:13:56.609Z,19.10
2018-04-08T20:16:24.207Z,19.10
2018-04-08T20:18:51.659Z,19.10
2018-04-08T20:21:19.176Z,19.10
2018-04-08T20:23:46.639Z,19.00
2018-04-08T20:26:14.084Z,19.10
2018-04-08T20:28:41.551Z,19.10
2018-04-08T20:31:09.213Z,19.00
2018-04-08T20:33:36.656Z,19.00
2018-04-08T20:36:04.142Z,19.00
2018-04-08T20:38:31.586Z,18.90
2018-04-08T20:40:59.065Z,18.80
2018-04-08T20:43:26.505Z,18.70
2018-04-08T20:45:53.972Z,18.80
2018-04-08T20:48:21.421Z,18.70
2018-04-08T20:50:48.891Z,18.70
2018-04-08T20:53:16.437Z,18.80
2018-04-08T20:55:43.886Z,18.70
2018-04-08T20:58:11.385Z,18.60
2018-04-08T21:00:38.817Z,18.60
2018-04-08T21:03:07.075Z,18.50
2018-04-08T21:05:34.526Z,18.50
2018-04-08T21:08:02.004Z,18.50
2018-04-08T21:10:29.466Z,18.40
2018-04-08T21:12:56.977Z,18.40
2018-04-08T21:15:24.381Z,18.20
2018-04-08T21:17:52.631Z,18.10
2018-04-08T21:20:20.105Z,18.10
2018-04-08T21:22:47.778Z,18.00
2018-04-08T21:25:15.252Z,18.00
2018-04-08T21:27:42.802Z,18.00
2018-04-08T21:30:11.039Z,17.90
2018-04-08T21:32:38.494Z,17.90
2018-04-08T21:35:06.725Z,17.80
2018-04-08T21:37:34.192Z,17.80
2018-04-08T21:40:01.676Z,17.80
2018-04-08T21:42:29.117Z,17.60
2018-04-08T21:44:56.576Z,17.30
2018-04-08T21:47:24.041Z,17.30
2018-04-08T21:49:51.503Z,17.20
2018-04-08T21:52:19.718Z,17.00
2018-04-08T21:54:47.822Z,16.90
2018-04-08T21:57:15.300Z,17.00
2018-04-08T21:59:42.992Z,17.10
2018-04-08T22:02:10.464Z,17.20
2018-04-08T22:07:15.090Z,17.00
2018-04-08T22:09:42.578Z,16.90
2018-04-08T22:12:10.061Z,16.90
2018-04-08T22:14:37.540Z,16.80
2018-04-08T22:17:05.052Z,16.80
2018-04-08T22:19:32.492Z,16.70
2018-04-08T22:21:59.952Z,16.60
2018-04-08T22:24:27.404Z,16.50
2018-04-08T22:26:55.652Z,16.50
2018-04-08T22:29:23.851Z,16.40
2018-04-08T22:31:51.336Z,16.40
2018-04-08T22:34:18.832Z,16.30
2018-04-08T22:36:47.068Z,16.30
2018-04-08T22:39:14.539Z,16.30
2018-04-08T22:41:42.050Z,16.20
2018-04-08T22:44:09.455Z,16.10
2018-04-08T22:46:37.687Z,16.10
2018-04-08T22:49:05.170Z,16.10
2018-04-08T22:51:32.623Z,16.20
2018-04-08T22:54:00.077Z,16.20
2018-04-08T22:56:27.523Z,16.10
2018-04-08T22:58:54.994Z,16.00
2018-04-08T23:01:22.449Z,15.90
2018-04-08T23:03:49.931Z,15.80
2018-04-08T23:06:17.376Z,15.80
2018-04-08T23:08:44.816Z,15.80
2018-04-08T23:11:13.036Z,15.80
2018-04-08T23:13:40.533Z,15.80
2018-04-08T23:16:07.978Z,15.80
2018-04-08T23:18:35.436Z,15.80
2018-04-08T23:21:03.660Z,15.80
2018-04-08T23:23:31.183Z,15.70
2018-04-08T23:25:58.635Z,15.80
2018-04-08T23:28:26.093Z,15.80
2018-04-08T23:30:53.549Z,15.70
2018-04-08T23:33:21.012Z,15.70
2018-04-08T23:35:49.213Z,15.50
2018-04-08T23:38:17.465Z,15.60
2018-04-08T23:40:45.024Z,15.60
2018-04-08T23:43:12.484Z,15.70
2018-04-08T23:45:39.936Z,15.70
2018-04-08T23:48:07.388Z,15.70
2018-04-08T23:50:35.623Z,15.50
2018-04-08T23:53:03.079Z,15.50
2018-04-08T23:55:31.294Z,15.50
2018-04-08T23:57:58.726Z,15.40
